Clintonville, NY (12924)

8:45 AM EST on December 25, 2014 (GMT -0500)
RAWS SCHUYLER FALLS NY US | Change Station
CLOSE
Current Station
Personal Weather Station
Location: Peru, NY
Elevation: 649 ft
Nearby Weather Stations

Elev 649 ft 44.60 °N, 73.60 °W | Updated 44 minutes ago

Mostly Cloudy
Mostly Cloudy
43 °F
Feels Like 38 °F
N
8
Wind Variable Wind from SW
Gusts 26.0 mph

Today
High -- | Low -- °F
--% Chance of Precip.
Yesterday
High -- | Low -- °F
Precip. -- in
7:29 AM 4:19 PM
Waxing Crescent, 16% visible
Pressure 29.41 in
Visibility 10.0 miles
Clouds Scattered Clouds 4700 ft
Windchill 38 °F
Dew Point 32 °F
Humidity 64%
Rainfall 0.76 in
Snow Depth Not available.
UV 0 out of 12
Pollen .10 out of 12
Air Quality Not available.
Flu Activity Not available.
METAR KPBG 251253Z AUTO 22013G28KT 10SM SCT047 08/00 A2941 RMK AO2 PK WND 23031/1200 SLP959 T00780000

More Conditions Fewer Conditions

Pressure 29.41 in
Visibility 10.0 miles
Clouds Scattered Clouds 4700 ft
Windchill 38 °F
Dew Point 32 °F
Humidity 64%
Rainfall 0.76 in
Snow Depth Not available.
UV 0 out of 12
Pollen .10 out of 12
Air Quality Not available.
Flu Activity Not available.
METAR KPBG 251253Z AUTO 22013G28KT 10SM SCT047 08/00 A2941 RMK AO2 PK WND 23031/1200 SLP959 T00780000

More Conditions Fewer Conditions

10-Day Weather Forecast

Almanac

Astronomy

Dec. 25, 2014 Rise Set
Actual Time
Civil Twilight
Nautical Twilight
Astronomical Twilight
Moon
Length of Visible Light
Length of Day
Tomorrow will be .
, % of the Moon is Illuminated

Today's Extremes

State Highs State Lows

Community

WunderPhotos

Upload Photos

1,780,275 photos uploaded!

WunderBlogs® & News

Nearby

Air Quality

  Air Quality AQ Index Pollutant
Not available.

Snow Depth

Station Depth Elevation

Earthquake Activity

City Distance Mag. Time & Date
Minimum magnitude displayed is 2.5.

Coastal Water Temperatures

Place Temperature

Nearby Weather Stations